createdAt,value
2022-08-23T00:02:12.863Z,6.03
2022-08-23T00:05:07.459Z,6.63
2022-08-23T00:07:44.037Z,7.30
2022-08-23T00:10:15.661Z,6.80
2022-08-23T00:15:16.626Z,5.80
2022-08-23T00:17:44.166Z,6.15
2022-08-23T00:20:16.807Z,6.40
2022-08-23T00:22:44.629Z,6.90
2022-08-23T00:25:15.327Z,6.43
2022-08-23T00:27:43.998Z,6.50
2022-08-23T00:30:15.770Z,5.95
2022-08-23T00:35:26.971Z,7.35
2022-08-23T00:38:31.935Z,6.88
2022-08-23T00:40:51.153Z,7.10
2022-08-23T00:43:48.136Z,7.30
2022-08-23T00:47:05.634Z,7.18
2022-08-23T00:49:38.779Z,7.07
2022-08-23T00:52:22.941Z,6.53
2022-08-23T00:54:54.171Z,6.53
2022-08-23T00:57:22.561Z,6.78
2022-08-23T00:59:50.532Z,7.00
2022-08-23T01:02:19.396Z,6.78
2022-08-23T01:04:56.906Z,7.53
2022-08-23T01:07:46.889Z,7.03
2022-08-23T01:10:29.186Z,8.18
2022-08-23T01:13:15.371Z,7.50
2022-08-23T01:15:55.450Z,8.13
2022-08-23T01:18:28.428Z,9.07
2022-08-23T01:20:58.128Z,8.68
2022-08-23T01:23:41.469Z,8.50
2022-08-23T01:28:40.931Z,8.15
2022-08-23T01:31:16.270Z,6.97
2022-08-23T01:33:53.479Z,7.78
2022-08-23T01:36:22.075Z,7.43
2022-08-23T01:38:52.130Z,7.93
2022-08-23T01:41:19.890Z,8.05
2022-08-23T01:43:48.390Z,7.93
2022-08-23T01:46:22.741Z,8.75
2022-08-23T01:48:55.217Z,8.13
2022-08-23T01:51:24.595Z,7.47
2022-08-23T01:53:53.551Z,8.02
2022-08-23T01:56:31.476Z,8.75
2022-08-23T01:59:10.888Z,8.48
2022-08-23T02:01:44.140Z,8.50
2022-08-23T02:04:11.660Z,8.63
2022-08-23T02:06:39.579Z,8.50
2022-08-23T02:09:17.373Z,7.97
2022-08-23T02:11:47.357Z,8.70
2022-08-23T02:14:20.205Z,7.70
2022-08-23T02:17:03.531Z,8.30
2022-08-23T02:19:38.897Z,7.82
2022-08-23T02:22:09.817Z,7.40
2022-08-23T02:24:46.715Z,7.45
2022-08-23T02:27:16.574Z,7.93
2022-08-23T02:29:47.362Z,8.13
2022-08-23T02:32:18.426Z,8.13
2022-08-23T02:34:53.469Z,7.68
2022-08-23T02:37:32.326Z,7.88
2022-08-23T02:39:59.976Z,8.07
2022-08-23T02:42:29.215Z,7.75
2022-08-23T02:44:56.702Z,7.50
2022-08-23T02:47:24.475Z,8.02
2022-08-23T02:50:10.930Z,7.85
2022-08-23T02:52:38.450Z,8.95
2022-08-23T02:55:07.681Z,9.70
2022-08-23T02:57:36.156Z,8.80
2022-08-23T03:00:07.326Z,8.00
2022-08-23T03:02:35.572Z,8.25
2022-08-23T03:05:10.397Z,8.30
2022-08-23T03:07:38.498Z,7.95
2022-08-23T03:10:09.284Z,8.18
2022-08-23T03:12:39.987Z,8.82
2022-08-23T03:15:08.324Z,7.60
2022-08-23T03:17:35.894Z,7.85
2022-08-23T03:20:08.593Z,8.85
2022-08-23T03:22:36.122Z,9.75
2022-08-23T03:25:06.690Z,9.60
2022-08-23T03:27:47.815Z,8.90
2022-08-23T03:30:19.220Z,8.20
2022-08-23T03:32:53.291Z,9.10
2022-08-23T03:35:21.879Z,8.93
2022-08-23T03:37:52.381Z,9.75
2022-08-23T03:40:23.154Z,7.97
2022-08-23T03:42:51.766Z,10.52
2022-08-23T03:45:22.240Z,12.00
2022-08-23T03:47:50.416Z,12.02
2022-08-23T03:50:18.562Z,12.13
2022-08-23T03:52:47.023Z,12.80
2022-08-23T03:55:16.099Z,11.77
2022-08-23T03:57:46.477Z,12.95
2022-08-23T04:00:20.382Z,11.10
2022-08-23T04:02:50.007Z,11.48
2022-08-23T04:05:17.943Z,12.73
2022-08-23T04:07:51.739Z,12.10
2022-08-23T04:10:22.417Z,12.00
2022-08-23T04:12:54.910Z,12.35
2022-08-23T04:15:22.992Z,11.98
2022-08-23T04:17:51.069Z,12.90
2022-08-23T04:20:18.994Z,13.70
2022-08-23T04:22:56.434Z,12.90
2022-08-23T04:25:33.293Z,13.27
2022-08-23T04:28:05.031Z,13.50
2022-08-23T04:30:33.427Z,13.23
2022-08-23T04:33:02.201Z,13.30
2022-08-23T04:35:32.866Z,12.75
2022-08-23T04:38:01.354Z,13.70
2022-08-23T04:40:47.957Z,13.18
2022-08-23T04:43:17.711Z,14.00
2022-08-23T04:45:45.346Z,13.20
2022-08-23T04:48:24.268Z,13.90
2022-08-23T04:50:52.372Z,14.02
2022-08-23T04:53:20.854Z,14.05
2022-08-23T04:55:58.541Z,13.82
2022-08-23T04:58:27.525Z,12.90
2022-08-23T05:00:55.397Z,11.80
2022-08-23T05:05:58.130Z,12.10
2022-08-23T05:08:32.317Z,13.63
2022-08-23T05:11:07.559Z,14.32
2022-08-23T05:13:38.861Z,14.25
2022-08-23T05:16:08.941Z,12.65
2022-08-23T05:18:41.524Z,13.70
2022-08-23T05:21:24.985Z,15.90
2022-08-23T05:23:54.989Z,14.82
2022-08-23T05:26:25.414Z,16.13
2022-08-23T05:28:53.891Z,17.23
2022-08-23T05:31:29.262Z,18.60
2022-08-23T05:33:59.905Z,17.95
2022-08-23T05:36:38.214Z,18.23
2022-08-23T05:39:24.105Z,17.48
2022-08-23T05:41:56.571Z,17.38
2022-08-23T05:44:24.210Z,17.92
2022-08-23T05:46:51.651Z,18.20
2022-08-23T05:49:30.527Z,16.17
2022-08-23T05:51:59.159Z,17.52
2022-08-23T05:54:31.187Z,18.02
2022-08-23T05:57:17.086Z,18.23
2022-08-23T05:59:45.074Z,18.15
2022-08-23T06:02:12.596Z,18.05
2022-08-23T06:04:41.381Z,17.50
2022-08-23T06:07:11.084Z,17.17
2022-08-23T06:09:40.801Z,16.77
2022-08-23T06:12:10.253Z,18.48
2022-08-23T06:14:39.677Z,17.98
2022-08-23T06:17:07.397Z,18.60
2022-08-23T06:19:35.308Z,18.70
2022-08-23T06:22:25.364Z,18.65
2022-08-23T06:24:53.508Z,18.77
2022-08-23T06:27:28.746Z,17.75
2022-08-23T06:29:56.273Z,17.55
2022-08-23T06:32:32.616Z,19.38
2022-08-23T06:35:37.721Z,19.13
2022-08-23T06:38:12.832Z,19.30
2022-08-23T06:41:13.255Z,19.48
2022-08-23T06:43:59.399Z,19.42
2022-08-23T06:46:36.054Z,20.35
2022-08-23T06:49:05.974Z,18.10
2022-08-23T06:51:39.521Z,19.08
2022-08-23T06:54:21.780Z,19.95
2022-08-23T06:57:08.993Z,19.70
2022-08-23T06:59:56.478Z,20.02
2022-08-23T07:02:52.901Z,19.85
2022-08-23T07:05:39.187Z,19.02
2022-08-23T07:08:21.344Z,19.20
2022-08-23T07:10:49.294Z,17.33
2022-08-23T07:13:18.639Z,17.13
2022-08-23T07:15:50.097Z,18.58
2022-08-23T07:18:20.060Z,17.27
2022-08-23T07:20:47.633Z,17.02
2022-08-23T07:23:15.591Z,15.73
2022-08-23T07:25:43.717Z,16.27
2022-08-23T07:28:14.970Z,15.43
2022-08-23T07:30:45.423Z,14.88
2022-08-23T07:33:14.374Z,12.25
2022-08-23T07:36:01.805Z,11.75
2022-08-23T07:38:30.774Z,10.98
2022-08-23T07:40:59.293Z,10.15
2022-08-23T07:43:26.764Z,9.80
2022-08-23T07:45:55.663Z,9.45
2022-08-23T07:48:43.588Z,9.13
2022-08-23T07:51:16.005Z,7.85
2022-08-23T07:53:46.284Z,7.22
2022-08-23T07:56:20.071Z,8.88
2022-08-23T07:59:09.862Z,8.43
2022-08-23T08:01:47.592Z,7.43
2022-08-23T08:04:15.884Z,7.75
2022-08-23T08:07:04.945Z,8.93
2022-08-23T08:09:39.932Z,8.93
2022-08-23T08:12:08.879Z,9.77
2022-08-23T08:14:38.084Z,9.25
2022-08-23T08:17:06.860Z,10.13
2022-08-23T08:19:55.354Z,10.95
2022-08-23T08:22:51.012Z,11.98
2022-08-23T08:25:34.338Z,12.68
2022-08-23T08:28:04.617Z,16.27
2022-08-23T08:30:32.381Z,16.13
2022-08-23T08:33:02.384Z,17.80
2022-08-23T08:35:31.656Z,17.27
2022-08-23T08:37:59.505Z,16.40
2022-08-23T08:40:36.153Z,14.80
2022-08-23T08:43:38.365Z,14.57
2022-08-23T08:46:26.822Z,13.38
2022-08-23T08:49:05.116Z,13.45
2022-08-23T08:51:56.596Z,13.75
2022-08-23T08:54:29.372Z,12.70
2022-08-23T08:57:01.251Z,12.50
2022-08-23T08:59:54.661Z,13.27
2022-08-23T09:02:34.124Z,11.45
2022-08-23T09:05:23.013Z,11.40
2022-08-23T09:08:29.724Z,9.98
2022-08-23T09:11:40.498Z,11.20
2022-08-23T09:14:14.618Z,9.98
2022-08-23T09:17:05.578Z,11.05
2022-08-23T09:19:37.907Z,11.30
2022-08-23T09:22:13.569Z,10.57
2022-08-23T09:24:42.170Z,10.45
2022-08-23T09:27:16.189Z,12.55
2022-08-23T09:29:56.424Z,12.50
2022-08-23T09:32:27.150Z,12.87
2022-08-23T09:35:26.336Z,13.18
2022-08-23T09:38:20.774Z,13.43
2022-08-23T09:40:54.505Z,13.55
2022-08-23T09:43:28.503Z,12.82
2022-08-23T09:46:01.378Z,11.43
2022-08-23T09:48:45.681Z,9.88
2022-08-23T09:51:35.012Z,10.80
2022-08-23T09:54:15.847Z,10.85
2022-08-23T09:59:27.155Z,11.68
2022-08-23T10:02:02.319Z,10.20
2022-08-23T10:04:46.872Z,9.40
2022-08-23T10:07:34.724Z,8.07
2022-08-23T10:10:49.066Z,7.95
2022-08-23T10:13:21.929Z,5.60
2022-08-23T10:17:19.601Z,7.15
2022-08-23T10:20:04.797Z,7.22
2022-08-23T10:22:55.774Z,6.55
2022-08-23T10:25:45.606Z,3.97
2022-08-23T10:28:53.836Z,2.88
2022-08-23T10:31:47.370Z,3.10
2022-08-23T10:34:59.439Z,2.30
2022-08-23T10:37:53.089Z,2.30
2022-08-23T10:40:59.804Z,2.97
2022-08-23T10:43:52.965Z,2.88
2022-08-23T10:46:23.570Z,3.30
2022-08-23T10:51:42.119Z,3.72
2022-08-23T10:54:24.074Z,2.70
2022-08-23T10:56:58.486Z,3.80
2022-08-23T10:59:27.663Z,3.00
2022-08-23T11:02:25.168Z,2.58
2022-08-23T11:05:18.298Z,2.60
2022-08-23T11:08:07.681Z,2.60
2022-08-23T11:10:39.218Z,2.70
2022-08-23T11:13:13.649Z,2.60
2022-08-23T11:15:58.679Z,2.92
2022-08-23T11:18:47.361Z,3.30
2022-08-23T11:21:28.422Z,2.95
2022-08-23T11:23:59.564Z,3.35
2022-08-23T11:26:36.373Z,3.45
2022-08-23T11:29:07.022Z,3.92
2022-08-23T11:32:21.380Z,4.40
2022-08-23T11:35:28.534Z,3.35
2022-08-23T11:38:04.979Z,4.07
2022-08-23T11:40:50.616Z,3.25
2022-08-23T11:46:32.442Z,2.90
2022-08-23T11:49:30.354Z,2.70
2022-08-23T11:52:09.214Z,2.80
2022-08-23T11:54:39.502Z,2.92
2022-08-23T11:57:25.668Z,3.55
2022-08-23T12:00:02.135Z,3.00
2022-08-23T12:02:39.038Z,3.22
2022-08-23T12:05:18.023Z,2.70
2022-08-23T12:07:53.813Z,2.53
2022-08-23T12:10:45.221Z,2.55
2022-08-23T12:13:56.274Z,2.58
2022-08-23T12:16:24.175Z,2.40
2022-08-23T12:18:57.307Z,2.65
2022-08-23T12:21:45.691Z,2.70
2022-08-23T12:24:32.315Z,2.50
2022-08-23T12:27:34.772Z,2.67
2022-08-23T12:30:26.450Z,2.10
2022-08-23T12:33:35.986Z,2.10
2022-08-23T12:36:43.863Z,2.33
2022-08-23T12:39:39.688Z,2.47
2022-08-23T12:42:15.848Z,2.33
2022-08-23T12:44:47.367Z,2.00
2022-08-23T12:47:20.970Z,2.15
2022-08-23T12:50:04.050Z,2.00
2022-08-23T12:52:36.164Z,2.20
2022-08-23T12:55:21.200Z,2.50
2022-08-23T12:57:58.151Z,2.03
2022-08-23T13:00:36.540Z,2.22
2022-08-23T13:03:25.075Z,1.92
2022-08-23T13:06:05.018Z,2.22
2022-08-23T13:08:45.894Z,2.28
2022-08-23T13:11:18.222Z,2.20
2022-08-23T13:13:47.981Z,2.13
2022-08-23T13:16:36.140Z,2.40
2022-08-23T13:19:33.584Z,2.15
2022-08-23T13:22:24.968Z,2.30
2022-08-23T13:25:32.325Z,2.22
2022-08-23T13:28:29.677Z,2.10
2022-08-23T13:31:00.637Z,2.33
2022-08-23T13:33:28.199Z,1.90
2022-08-23T13:36:17.208Z,2.30
2022-08-23T13:38:46.796Z,2.20
2022-08-23T13:41:38.425Z,2.20
2022-08-23T13:44:09.533Z,2.00
2022-08-23T13:46:47.444Z,2.35
2022-08-23T13:49:21.971Z,1.90
2022-08-23T13:52:41.281Z,2.00
2022-08-23T13:54:57.223Z,2.45
2022-08-23T13:57:27.366Z,2.00
2022-08-23T14:00:00.694Z,1.95
2022-08-23T14:02:29.518Z,1.40
2022-08-23T14:04:57.053Z,1.40
2022-08-23T14:07:24.589Z,1.70
2022-08-23T14:09:55.112Z,1.48
2022-08-23T14:12:27.887Z,1.95
2022-08-23T14:14:58.189Z,1.58
2022-08-23T14:17:26.487Z,1.40
2022-08-23T14:20:32.515Z,1.60
2022-08-23T14:22:42.122Z,1.73
2022-08-23T14:25:12.511Z,1.63
2022-08-23T14:27:42.869Z,1.80
2022-08-23T14:30:22.682Z,1.75
2022-08-23T14:32:50.210Z,1.67
2022-08-23T14:35:18.348Z,1.50
2022-08-23T14:40:36.212Z,1.25
2022-08-23T14:43:05.858Z,1.47
2022-08-23T14:45:33.466Z,1.58
2022-08-23T14:48:01.105Z,1.35
2022-08-23T14:50:29.056Z,1.52
2022-08-23T14:52:56.918Z,1.80
2022-08-23T14:55:25.208Z,1.80
2022-08-23T14:57:53.151Z,1.25
2022-08-23T15:00:21.095Z,1.55
2022-08-23T15:02:50.022Z,1.40
2022-08-23T15:05:18.211Z,1.38
2022-08-23T15:07:45.936Z,1.98
2022-08-23T15:13:20.723Z,1.42
2022-08-23T15:15:53.478Z,1.55
2022-08-23T15:18:21.409Z,1.45
2022-08-23T15:20:49.190Z,1.50
2022-08-23T15:23:20.969Z,1.50
2022-08-23T15:25:50.001Z,1.40
2022-08-23T15:28:21.107Z,1.38
2022-08-23T15:30:49.647Z,1.67
2022-08-23T15:33:23.378Z,1.20
2022-08-23T15:35:54.873Z,1.50
2022-08-23T15:38:25.389Z,1.48
2022-08-23T15:40:54.634Z,1.50
2022-08-23T15:43:25.900Z,1.60
2022-08-23T15:46:15.801Z,1.40
2022-08-23T15:49:11.273Z,1.60
2022-08-23T15:51:39.933Z,1.50
2022-08-23T15:54:10.245Z,1.40
2022-08-23T15:56:52.818Z,1.40
2022-08-23T15:59:21.721Z,1.52
2022-08-23T16:01:49.291Z,1.92
2022-08-23T16:04:17.909Z,1.58
2022-08-23T16:06:45.607Z,1.52
2022-08-23T16:09:22.897Z,1.55
2022-08-23T16:11:51.605Z,1.48
2022-08-23T16:14:19.534Z,1.50
2022-08-23T16:16:48.244Z,1.27
2022-08-23T16:19:16.794Z,1.58
2022-08-23T16:21:45.464Z,1.50
2022-08-23T16:24:12.908Z,1.40
2022-08-23T16:26:45.302Z,1.42
2022-08-23T16:29:17.196Z,1.20
2022-08-23T16:31:46.459Z,1.10
2022-08-23T16:34:18.864Z,1.10
2022-08-23T16:36:54.989Z,1.35
2022-08-23T16:39:25.052Z,1.45
2022-08-23T16:41:56.246Z,1.48
2022-08-23T16:44:23.928Z,1.40
2022-08-23T16:46:51.879Z,1.23
2022-08-23T16:49:19.786Z,1.17
2022-08-23T16:51:48.524Z,1.10
2022-08-23T16:54:19.063Z,1.00
2022-08-23T16:56:46.705Z,1.15
2022-08-23T16:59:14.693Z,1.17
2022-08-23T17:01:51.318Z,1.27
2022-08-23T17:04:24.251Z,1.20
2022-08-23T17:06:56.249Z,1.00
2022-08-23T17:09:27.232Z,1.10
2022-08-23T17:11:55.171Z,1.48
2022-08-23T17:14:24.149Z,1.23
2022-08-23T17:16:51.800Z,1.20
2022-08-23T17:19:19.240Z,1.25
2022-08-23T17:21:46.797Z,1.20
2022-08-23T17:24:14.272Z,1.42
2022-08-23T17:26:41.991Z,1.25
2022-08-23T17:29:09.596Z,1.30
2022-08-23T17:31:37.878Z,1.17
2022-08-23T17:34:06.729Z,1.38
2022-08-23T17:36:47.564Z,1.20
2022-08-23T17:39:20.813Z,1.20
2022-08-23T17:41:48.899Z,1.30
2022-08-23T17:44:17.331Z,1.50
2022-08-23T17:46:46.045Z,1.38
2022-08-23T17:49:16.403Z,0.88
2022-08-23T17:51:44.423Z,1.40
2022-08-23T17:54:16.191Z,1.48
2022-08-23T17:56:49.840Z,1.20
2022-08-23T17:59:19.974Z,1.00
2022-08-23T18:01:47.957Z,1.17
2022-08-23T18:04:15.490Z,1.25
2022-08-23T18:06:43.081Z,1.00
2022-08-23T18:09:11.154Z,1.60
2022-08-23T18:11:39.031Z,1.20
2022-08-23T18:14:06.519Z,1.40
2022-08-23T18:16:36.008Z,1.40
2022-08-23T18:19:07.098Z,1.27
2022-08-23T18:21:40.397Z,1.30
2022-08-23T18:24:09.276Z,1.20
2022-08-23T18:26:56.676Z,1.58
2022-08-23T18:29:24.778Z,1.42
2022-08-23T18:31:52.365Z,1.50
2022-08-23T18:34:20.325Z,1.50
2022-08-23T18:36:48.767Z,1.20
2022-08-23T18:39:17.372Z,1.30
2022-08-23T18:42:05.452Z,1.15
2022-08-23T18:44:32.992Z,1.17
2022-08-23T18:47:02.415Z,1.40
2022-08-23T18:49:33.560Z,1.20
2022-08-23T18:54:33.507Z,1.40
2022-08-23T18:57:02.222Z,1.27
2022-08-23T18:59:29.966Z,1.48
2022-08-23T19:01:57.645Z,1.50
2022-08-23T19:04:25.255Z,1.25
2022-08-23T19:06:54.268Z,1.40
2022-08-23T19:09:22.179Z,1.48
2022-08-23T19:11:50.095Z,1.48
2022-08-23T19:14:17.542Z,1.48
2022-08-23T19:16:48.331Z,1.50
2022-08-23T19:21:44.815Z,1.60
2022-08-23T19:24:12.533Z,1.60
2022-08-23T19:26:44.290Z,1.60
2022-08-23T19:29:11.735Z,1.80
2022-08-23T19:31:43.983Z,1.80
2022-08-23T19:34:11.642Z,1.60
2022-08-23T19:36:49.252Z,1.92
2022-08-23T19:39:19.536Z,1.75
2022-08-23T19:41:48.542Z,2.08
2022-08-23T19:44:41.481Z,2.30
2022-08-23T19:47:13.337Z,2.47
2022-08-23T19:49:47.002Z,2.28
2022-08-23T19:52:15.049Z,2.20
2022-08-23T19:54:42.488Z,2.30
2022-08-23T19:57:10.052Z,2.30
2022-08-23T19:59:40.362Z,2.20
2022-08-23T20:02:09.965Z,2.60
2022-08-23T20:04:37.516Z,2.15
2022-08-23T20:07:05.892Z,2.20
2022-08-23T20:09:34.638Z,3.22
2022-08-23T20:12:03.131Z,2.70
2022-08-23T20:14:33.498Z,2.42
2022-08-23T20:17:04.331Z,2.33
2022-08-23T20:19:32.115Z,2.50
2022-08-23T20:22:19.503Z,3.08
2022-08-23T20:24:52.064Z,2.80
2022-08-23T20:27:28.439Z,2.53
2022-08-23T20:30:02.002Z,3.13
2022-08-23T20:32:31.220Z,2.88
2022-08-23T20:35:00.920Z,2.88
2022-08-23T20:37:29.972Z,3.08
2022-08-23T20:39:57.559Z,3.85
2022-08-23T20:42:25.503Z,4.80
2022-08-23T20:44:53.093Z,4.60
2022-08-23T20:47:20.631Z,4.30
2022-08-23T20:49:49.287Z,5.97
2022-08-23T20:52:18.219Z,6.40
2022-08-23T20:54:46.122Z,5.38
2022-08-23T20:57:13.725Z,7.22
2022-08-23T20:59:44.698Z,6.30
2022-08-23T21:04:40.514Z,7.45
2022-08-23T21:07:09.120Z,7.85
2022-08-23T21:09:36.688Z,6.82
2022-08-23T21:12:05.372Z,7.68
2022-08-23T21:14:33.029Z,7.55
2022-08-23T21:17:00.569Z,9.70
2022-08-23T21:19:29.945Z,9.77
2022-08-23T21:21:58.293Z,9.35
2022-08-23T21:24:26.284Z,8.10
2022-08-23T21:26:53.808Z,9.23
2022-08-23T21:29:22.105Z,9.02
2022-08-23T21:31:49.521Z,8.38
2022-08-23T21:34:18.395Z,8.88
2022-08-23T21:36:45.867Z,9.75
2022-08-23T21:39:13.654Z,8.70
2022-08-23T21:41:45.781Z,7.55
2022-08-23T21:44:18.786Z,7.18
2022-08-23T21:46:48.828Z,9.52
2022-08-23T21:49:17.861Z,8.50
2022-08-23T21:51:45.804Z,8.48
2022-08-23T21:54:14.755Z,8.43
2022-08-23T21:56:42.506Z,9.23
2022-08-23T21:59:14.968Z,9.65
2022-08-23T22:01:43.423Z,9.00
2022-08-23T22:04:13.753Z,9.10
2022-08-23T22:06:45.312Z,8.30
2022-08-23T22:09:29.636Z,10.15
2022-08-23T22:12:00.398Z,8.93
2022-08-23T22:14:31.419Z,9.93
2022-08-23T22:19:27.568Z,10.98
2022-08-23T22:21:55.134Z,11.10
2022-08-23T22:24:25.862Z,11.63
2022-08-23T22:26:55.438Z,10.57
2022-08-23T22:29:24.533Z,10.40
2022-08-23T22:31:52.087Z,9.65
2022-08-23T22:34:19.716Z,11.48
2022-08-23T22:36:52.150Z,10.27
2022-08-23T22:39:22.906Z,11.05
2022-08-23T22:41:50.581Z,11.15
2022-08-23T22:44:18.355Z,13.57
2022-08-23T22:46:46.074Z,11.75
2022-08-23T22:49:13.890Z,11.38
2022-08-23T22:51:42.604Z,12.50
2022-08-23T22:54:11.534Z,11.18
2022-08-23T22:56:45.130Z,13.15
2022-08-23T22:59:16.146Z,12.48
2022-08-23T23:01:49.306Z,11.95
2022-08-23T23:04:20.833Z,10.80
2022-08-23T23:09:17.008Z,12.63
2022-08-23T23:11:45.595Z,13.13
2022-08-23T23:17:15.630Z,13.43
2022-08-23T23:20:01.892Z,14.13
2022-08-23T23:22:29.365Z,14.95
2022-08-23T23:24:57.047Z,13.23
2022-08-23T23:27:24.465Z,12.38
2022-08-23T23:29:51.913Z,11.63
2022-08-23T23:32:20.907Z,12.38
2022-08-23T23:34:48.410Z,14.27
2022-08-23T23:37:15.905Z,13.65
2022-08-23T23:39:43.368Z,14.75
2022-08-23T23:42:10.924Z,14.10
2022-08-23T23:44:39.407Z,13.43
2022-08-23T23:47:06.793Z,12.27
2022-08-23T23:49:34.055Z,11.30
2022-08-23T23:52:07.180Z,13.98
2022-08-23T23:54:35.972Z,14.55
2022-08-23T23:57:05.646Z,15.32
2022-08-23T23:59:33.996Z,16.67
